Time;durP1;ratioP1;P1;durP2;ratioP2;P2;SDS_P1;SDS_P2;PMS_P1;PMS_P2;Temp;Humidity;BMP_temperature;BMP_pressure;BME280_temperature;BME280_humidity;BME280_pressure;Samples;Min_cycle;Max_cycle;Signal;HPM_P1;HPM_P2
2023/09/23 00:01:25;;;;;;;35.95;10.85;;;;;;;22.36;61.53;94701.03;4178718;28;20059;-68
2023/09/23 00:03:30;;;;;;;22.70;8.55;;;;;;;22.36;61.06;94695.69;4169097;28;20100;-67
2023/09/23 00:05:35;;;;;;;32.72;13.07;;;;;;;22.34;61.09;94700.44;4164308;28;20050;-68
2023/09/23 00:07:41;;;;;;;28.58;12.60;;;;;;;22.32;61.30;94697.19;4160313;28;20076;-68
2023/09/23 00:09:43;;;;;;;28.13;13.55;;;;;;;22.32;61.79;94688.38;4154564;28;20137;-68
2023/09/23 00:11:45;;;;;;;28.50;12.60;;;;;;;22.29;61.67;94687.81;4161748;28;20684;-69
2023/09/23 00:13:47;;;;;;;27.88;11.23;;;;;;;22.27;61.51;94687.22;4169610;28;20049;-68
2023/09/23 00:15:52;;;;;;;34.35;11.90;;;;;;;22.26;61.82;94693.63;4169557;28;20049;-68
2023/09/23 00:17:55;;;;;;;32.80;12.90;;;;;;;22.28;61.59;94698.69;4154079;28;20053;-68
2023/09/23 00:19:57;;;;;;;28.57;12.73;;;;;;;22.27;61.26;94691.75;4163909;28;20503;-68
2023/09/23 00:21:58;;;;;;;31.73;13.00;;;;;;;22.26;61.52;94695.44;4160905;28;20112;-67
2023/09/23 00:24:01;;;;;;;27.50;13.10;;;;;;;22.25;61.50;94691.97;4175110;28;20393;-67
2023/09/23 00:26:04;;;;;;;27.75;13.05;;;;;;;22.27;61.45;94697.09;4171202;28;20427;-68
2023/09/23 00:28:10;;;;;;;22.23;10.03;;;;;;;22.25;61.47;94699.19;4162074;28;20061;-68
2023/09/23 00:30:13;;;;;;;24.45;11.20;;;;;;;22.18;62.00;94699.25;4164104;28;20314;-68
2023/09/23 00:32:17;;;;;;;25.58;10.82;;;;;;;22.15;62.38;94694.38;4162961;28;20412;-67
2023/09/23 00:34:20;;;;;;;20.30;10.50;;;;;;;22.12;62.25;94702.84;4169667;28;20052;-68
2023/09/23 00:36:24;;;;;;;25.63;9.85;;;;;;;22.09;62.63;94705.97;4178854;28;20045;-68
2023/09/23 00:38:27;;;;;;;24.55;9.35;;;;;;;22.06;62.18;94699.22;4166420;28;20564;-69
2023/09/23 00:40:32;;;;;;;19.27;8.80;;;;;;;22.05;62.32;94697.63;4157122;28;20065;-67
2023/09/23 00:42:34;;;;;;;16.70;7.80;;;;;;;22.02;62.18;94698.06;4151032;28;20050;-69
2023/09/23 00:44:39;;;;;;;28.20;12.30;;;;;;;22.02;62.34;94700.72;4159574;28;20504;-69
2023/09/23 00:46:42;;;;;;;21.30;10.02;;;;;;;21.96;62.37;94691.00;4160400;28;20049;-67
2023/09/23 00:48:44;;;;;;;25.85;10.00;;;;;;;21.92;62.65;94697.00;4156290;28;20056;-69
2023/09/23 00:50:47;;;;;;;26.10;9.13;;;;;;;21.91;62.61;94693.53;4176020;28;20110;-69
2023/09/23 00:52:51;;;;;;;19.50;9.30;;;;;;;21.91;62.66;94695.41;4175849;28;20131;-68
2023/09/23 00:54:54;;;;;;;21.33;9.55;;;;;;;21.89;62.78;94688.41;4165919;28;20285;-68
2023/09/23 00:56:58;;;;;;;16.88;8.05;;;;;;;21.89;62.90;94691.09;4161856;28;20057;-69
2023/09/23 00:59:00;;;;;;;22.85;8.13;;;;;;;21.89;62.46;94685.75;4135664;28;20057;-68
2023/09/23 01:01:02;;;;;;;19.17;8.02;;;;;;;21.87;62.19;94687.84;4154392;28;20085;-68
2023/09/23 01:03:04;;;;;;;21.92;9.40;;;;;;;21.85;62.37;94681.13;4163455;28;20368;-69
2023/09/23 01:05:08;;;;;;;20.80;10.60;;;;;;;21.83;62.59;94688.53;4152129;28;20073;-70
2023/09/23 01:07:10;;;;;;;24.83;10.57;;;;;;;21.79;62.81;94682.03;4160603;28;20080;-69
2023/09/23 01:09:20;;;;;;;29.08;11.20;;;;;;;21.75;62.98;94687.03;4151951;28;20510;-68
2023/09/23 01:11:23;;;;;;;26.10;8.82;;;;;;;21.75;62.61;94689.69;4155689;28;20065;-69
2023/09/23 01:13:29;;;;;;;18.63;8.25;;;;;;;21.74;62.35;94688.06;4160892;28;20049;-69
2023/09/23 01:15:31;;;;;;;26.63;9.73;;;;;;;21.73;62.06;94690.97;4164614;28;20076;-68
2023/09/23 01:17:34;;;;;;;17.40;8.32;;;;;;;21.74;62.11;94688.06;4162285;28;20057;-68
2023/09/23 01:19:36;;;;;;;23.73;9.85;;;;;;;21.76;62.15;94693.16;4157088;28;20049;-68
2023/09/23 01:21:38;;;;;;;30.55;9.68;;;;;;;21.75;62.46;94683.56;4166927;28;20057;-67
2023/09/23 01:23:43;;;;;;;20.92;9.27;;;;;;;21.77;62.38;94682.28;4152412;28;20052;-69
2023/09/23 01:25:46;;;;;;;25.10;9.75;;;;;;;21.76;62.73;94685.97;4151566;28;20048;-67
2023/09/23 01:27:48;;;;;;;25.67;9.52;;;;;;;21.74;62.71;94681.91;4169570;28;20041;-67
2023/09/23 01:29:53;;;;;;;27.70;10.50;;;;;;;21.72;62.24;94684.00;4165772;28;20357;-69
2023/09/23 01:32:15;;;;;;;23.75;10.23;;;;;;;21.65;61.83;94679.56;4162130;28;20082;-67
2023/09/23 01:34:16;;;;;;;25.77;9.73;;;;;;;21.62;61.95;94679.22;4154016;28;20077;-68
2023/09/23 01:36:18;;;;;;;21.35;8.27;;;;;;;21.58;62.58;94689.53;4165267;28;20056;-67
2023/09/23 01:38:20;;;;;;;16.88;8.73;;;;;;;21.54;62.71;94688.34;4151356;28;20054;-69
2023/09/23 01:40:24;;;;;;;22.20;9.05;;;;;;;21.53;63.11;94686.75;4161891;28;20173;-69
2023/09/23 01:42:28;;;;;;;20.38;7.88;;;;;;;21.52;62.99;94685.09;4151491;28;20303;-68
2023/09/23 01:44:30;;;;;;;21.20;8.23;;;;;;;21.48;63.28;94679.41;4171318;28;20041;-69
2023/09/23 01:46:33;;;;;;;16.13;7.32;;;;;;;21.46;62.77;94686.81;4166910;28;20056;-68
2023/09/23 01:48:35;;;;;;;17.70;7.43;;;;;;;21.48;62.91;94689.25;4165071;28;20048;-69
2023/09/23 01:50:36;;;;;;;20.27;7.85;;;;;;;21.50;62.74;94678.38;4156652;28;20247;-68
2023/09/23 01:52:40;;;;;;;19.33;7.90;;;;;;;21.48;62.47;94676.75;4162643;28;20053;-68
2023/09/23 01:54:47;;;;;;;17.83;7.82;;;;;;;21.47;62.41;94684.97;4155504;28;20056;-68
2023/09/23 01:56:48;;;;;;;21.52;8.38;;;;;;;21.44;62.41;94677.41;4160539;28;20041;-69
2023/09/23 01:58:50;;;;;;;22.33;7.88;;;;;;;21.39;62.75;94682.59;4160925;28;20134;-67
2023/09/23 02:00:54;;;;;;;19.48;8.88;;;;;;;21.38;62.85;94683.63;4160998;28;20412;-69
2023/09/23 02:02:57;;;;;;;19.23;7.60;;;;;;;21.30;63.60;94689.28;4153294;28;20137;-68
2023/09/23 02:04:59;;;;;;;26.70;7.70;;;;;;;21.28;63.51;94689.50;4161140;28;20132;-69
2023/09/23 02:07:02;;;;;;;22.95;8.23;;;;;;;21.26;64.01;94687.06;4162089;28;20165;-69
2023/09/23 02:09:03;;;;;;;17.30;8.07;;;;;;;21.09;64.39;94688.72;4150446;28;20491;-68
2023/09/23 02:11:05;;;;;;;22.00;8.68;;;;;;;20.88;65.14;94690.00;4152754;28;20662;-69
2023/09/23 02:13:07;;;;;;;18.92;8.07;;;;;;;20.78;65.90;94693.22;4157648;28;20053;-68
2023/09/23 02:15:10;;;;;;;22.70;8.07;;;;;;;20.80;65.96;94688.47;4150832;28;20058;-67
2023/09/23 02:17:12;;;;;;;17.33;7.75;;;;;;;20.90;66.00;94695.13;4176667;28;20057;-68
2023/09/23 02:19:18;;;;;;;21.55;8.18;;;;;;;20.95;65.28;94690.75;4165667;28;20484;-67
2023/09/23 02:21:20;;;;;;;26.02;8.65;;;;;;;20.99;65.20;94694.59;4165095;28;20053;-67
2023/09/23 02:23:22;;;;;;;19.38;8.63;;;;;;;21.02;65.37;94696.81;4161915;28;20041;-67
2023/09/23 02:25:24;;;;;;;19.15;8.20;;;;;;;21.02;65.21;94696.00;4158117;28;20045;-69
2023/09/23 02:27:26;;;;;;;24.63;8.93;;;;;;;20.98;65.45;94694.81;4160943;28;20041;-67
2023/09/23 02:29:29;;;;;;;25.30;9.20;;;;;;;20.85;65.77;94696.59;4160513;28;20049;-67
2023/09/23 02:31:31;;;;;;;16.08;8.32;;;;;;;20.70;65.60;94704.16;4158978;28;20437;-68
2023/09/23 02:33:33;;;;;;;19.65;8.05;;;;;;;20.55;66.19;94711.66;4160481;28;20412;-69
2023/09/23 02:35:35;;;;;;;16.42;7.32;;;;;;;20.40;66.77;94715.47;4166151;28;20056;-68
2023/09/23 02:37:43;;;;;;;21.42;7.72;;;;;;;20.38;66.41;94714.06;4163032;28;20260;-67
2023/09/23 02:39:45;;;;;;;21.13;7.63;;;;;;;20.25;66.70;94712.34;4136293;28;20081;-67
2023/09/23 02:41:48;;;;;;;20.40;8.32;;;;;;;20.30;66.85;94715.16;4161019;28;20132;-67
2023/09/23 02:43:52;;;;;;;23.20;8.57;;;;;;;20.41;66.54;94717.13;4150676;28;20132;-68
2023/09/23 02:46:00;;;;;;;21.30;8.02;;;;;;;20.51;66.33;94721.09;4148201;28;20064;-68
2023/09/23 02:48:02;;;;;;;18.42;8.00;;;;;;;20.58;65.80;94721.88;4165925;28;20053;-67
2023/09/23 02:50:09;;;;;;;20.27;7.40;;;;;;;20.63;65.54;94720.19;4163339;28;20111;-67
2023/09/23 02:52:11;;;;;;;15.68;7.68;;;;;;;20.68;65.87;94722.19;4163319;28;20085;-70
2023/09/23 02:54:18;;;;;;;19.98;7.30;;;;;;;20.70;65.43;94720.13;4162699;28;20053;-69
2023/09/23 02:56:19;;;;;;;17.70;7.47;;;;;;;20.65;65.58;94719.97;4160081;28;20133;-70
2023/09/23 02:58:22;;;;;;;20.55;7.65;;;;;;;20.64;65.96;94724.47;4156838;28;20682;-68
2023/09/23 03:00:29;;;;;;;21.77;9.05;;;;;;;20.64;66.07;94724.47;4160745;28;20058;-67
2023/09/23 03:02:31;;;;;;;17.45;7.28;;;;;;;20.61;65.96;94727.59;4149908;28;20177;-69
2023/09/23 03:04:34;;;;;;;23.45;6.90;;;;;;;20.57;65.26;94725.56;4148921;28;20481;-68
2023/09/23 03:06:39;;;;;;;22.45;7.10;;;;;;;20.57;64.95;94725.56;4158598;28;20263;-69
2023/09/23 03:08:47;;;;;;;19.00;7.03;;;;;;;20.56;64.58;94729.22;4162751;28;20230;-68
2023/09/23 03:10:51;;;;;;;18.98;7.15;;;;;;;20.60;64.48;94730.47;4158565;28;20061;-67
2023/09/23 03:13:02;;;;;;;16.70;6.45;;;;;;;20.63;64.26;94732.69;4155925;28;20103;-68
2023/09/23 03:15:14;;;;;;;18.85;6.93;;;;;;;20.65;63.89;94727.97;4160334;28;20049;-68
2023/09/23 03:17:21;;;;;;;24.00;6.80;;;;;;;20.65;63.59;94715.47;4154373;28;20050;-68
2023/09/23 03:19:28;;;;;;;23.48;6.60;;;;;;;20.66;63.65;94718.94;4158951;28;20489;-68
2023/09/23 03:21:30;;;;;;;18.73;6.70;;;;;;;20.65;63.77;94728.78;4156530;28;20379;-68
2023/09/23 03:23:32;;;;;;;17.25;7.18;;;;;;;20.65;63.77;94730.63;4163981;28;20068;-67
2023/09/23 03:25:41;;;;;;;19.17;7.22;;;;;;;20.62;63.88;94731.06;4159472;28;20141;-67
2023/09/23 03:27:43;;;;;;;17.35;6.90;;;;;;;20.62;63.83;94729.19;4152982;28;20053;-67
2023/09/23 03:29:46;;;;;;;16.05;6.93;;;;;;;20.62;63.73;94731.84;4161315;28;20068;-68
2023/09/23 03:31:50;;;;;;;17.93;6.73;;;;;;;20.62;63.63;94734.50;4163709;28;20045;-69
2023/09/23 03:33:52;;;;;;;19.17;6.93;;;;;;;20.60;64.13;94739.25;4163067;28;20041;-69
2023/09/23 03:35:54;;;;;;;19.20;6.70;;;;;;;20.57;64.45;94738.88;4161962;28;20067;-66
2023/09/23 03:37:56;;;;;;;15.57;7.20;;;;;;;20.55;64.42;94732.94;4153049;28;20045;-68
2023/09/23 03:39:59;;;;;;;13.52;6.60;;;;;;;20.51;64.46;94727.25;4163001;28;20084;-67
2023/09/23 03:42:01;;;;;;;17.30;7.23;;;;;;;20.50;64.58;94728.28;4148833;28;20053;-68
2023/09/23 03:44:07;;;;;;;19.77;7.63;;;;;;;20.51;64.68;94731.75;4157568;28;20279;-68
2023/09/23 03:46:16;;;;;;;14.75;7.68;;;;;;;20.40;64.93;94726.13;4167911;28;20053;-67
2023/09/23 03:48:20;;;;;;;17.17;6.60;;;;;;;20.39;65.25;94736.97;4162303;28;20484;-68
2023/09/23 03:50:22;;;;;;;18.35;7.45;;;;;;;20.35;65.33;94727.78;4161147;28;20049;-67
2023/09/23 03:52:24;;;;;;;20.63;7.18;;;;;;;20.34;65.61;94736.81;4162806;28;20053;-68
2023/09/23 03:54:28;;;;;;;18.35;7.65;;;;;;;20.35;65.69;94727.78;4155102;28;20050;-68
2023/09/23 03:56:33;;;;;;;17.20;7.10;;;;;;;20.35;65.50;94731.28;4159486;28;20053;-71
2023/09/23 03:58:35;;;;;;;19.80;7.68;;;;;;;20.36;65.48;94738.22;4160253;28;20497;-66
2023/09/23 04:00:37;;;;;;;21.50;8.30;;;;;;;20.35;65.58;94733.94;4172371;28;20419;-69
2023/09/23 04:02:40;;;;;;;21.47;8.03;;;;;;;20.33;65.67;94740.53;4169952;28;20499;-70
2023/09/23 04:04:42;;;;;;;20.98;7.68;;;;;;;20.31;65.76;94737.28;4159802;28;20341;-69
2023/09/23 04:06:44;;;;;;;26.05;8.30;;;;;;;20.23;66.15;94741.00;4162094;28;20049;-68
2023/09/23 04:08:47;;;;;;;24.35;7.50;;;;;;;20.21;66.03;94743.88;4164925;28;20511;-69
2023/09/23 04:10:49;;;;;;;;;;;;;;;20.23;66.03;94744.47;4165207;28;20173;-71
2023/09/23 04:12:55;;;;;;;20.55;7.95;;;;;;;20.22;65.93;94747.38;4162797;28;20319;-69
2023/09/23 04:14:58;;;;;;;21.70;8.45;;;;;;;20.23;66.06;94752.44;4163037;28;20423;-68
2023/09/23 04:17:00;;;;;;;23.52;8.45;;;;;;;20.25;65.96;94755.72;4163564;28;20145;-67
2023/09/23 04:19:03;;;;;;;22.33;8.18;;;;;;;20.25;65.82;94757.56;4161981;28;20968;-67
2023/09/23 04:21:08;;;;;;;15.55;7.88;;;;;;;20.18;66.14;94770.13;4169092;28;20076;-69
2023/09/23 04:23:10;;;;;;;24.20;8.57;;;;;;;20.04;66.30;94769.38;4150447;28;20058;-68
2023/09/23 04:25:13;;;;;;;19.73;9.45;;;;;;;19.90;66.77;94770.53;4162617;28;20049;-69
2023/09/23 04:27:16;;;;;;;27.25;9.82;;;;;;;19.77;67.02;94769.56;4154855;28;20540;-68
2023/09/23 04:29:20;;;;;;;21.73;9.73;;;;;;;19.63;67.71;94776.78;4159584;28;20141;-70
2023/09/23 04:31:24;;;;;;;;;;;;;;;19.60;67.70;94777.22;4162308;28;20471;-69
2023/09/23 04:33:27;;;;;;;23.00;7.75;;;;;;;19.67;67.57;94779.81;4160839;28;19929;-70
2023/09/23 04:35:29;;;;;;;20.73;8.35;;;;;;;19.74;67.11;94774.50;4153001;28;20481;-67
2023/09/23 04:37:36;;;;;;;14.85;7.80;;;;;;;19.83;66.65;94786.50;4154486;28;20116;-69
2023/09/23 04:39:38;;;;;;;20.67;7.28;;;;;;;19.92;66.59;94790.53;4163912;28;20140;-69
2023/09/23 04:41:41;;;;;;;21.42;7.63;;;;;;;20.05;66.52;94794.97;4166687;28;20076;-68
2023/09/23 04:43:43;;;;;;;21.50;7.93;;;;;;;20.11;66.16;94804.75;4170605;28;20041;-69
2023/09/23 04:45:48;;;;;;;19.05;7.63;;;;;;;20.14;65.22;94800.81;4162617;28;20107;-71
2023/09/23 04:47:50;;;;;;;21.05;7.95;;;;;;;20.18;65.49;94796.72;4162831;28;20476;-68
2023/09/23 04:49:53;;;;;;;18.20;7.30;;;;;;;20.20;65.24;94797.31;4163213;28;20095;-69
2023/09/23 04:51:56;;;;;;;19.48;7.28;;;;;;;20.27;64.95;94791.94;4166037;28;20600;-71
2023/09/23 04:53:58;;;;;;;15.43;7.00;;;;;;;20.31;64.59;94796.59;4166207;28;20545;-73
2023/09/23 04:56:07;;;;;;;22.80;7.82;;;;;;;20.33;64.54;94797.19;4157111;28;20069;-70
2023/09/23 04:58:12;;;;;;;19.83;7.78;;;;;;;20.38;64.58;94801.88;4164626;28;20436;-68
2023/09/23 05:00:18;;;;;;;22.25;8.73;;;;;;;20.28;64.96;94799.69;4155236;28;20049;-69
2023/09/23 05:02:20;;;;;;;22.33;9.30;;;;;;;20.23;65.18;94805.66;4153699;28;20104;-69
2023/09/23 05:04:23;;;;;;;19.08;8.20;;;;;;;20.21;65.54;94804.25;4151514;28;20080;-72
2023/09/23 05:06:24;;;;;;;22.15;9.05;;;;;;;20.18;66.46;94807.34;4151314;28;20088;-69
2023/09/23 05:08:26;;;;;;;19.13;8.98;;;;;;;20.20;67.23;94810.59;4159747;28;20080;-67
2023/09/23 05:10:28;;;;;;;22.25;9.38;;;;;;;20.20;66.47;94807.94;4152498;28;20734;-69
2023/09/23 05:12:30;;;;;;;21.10;9.30;;;;;;;20.21;66.27;94812.22;4157796;28;20053;-72
2023/09/23 05:14:32;;;;;;;18.15;8.55;;;;;;;20.28;65.99;94807.66;4157620;28;20500;-70
2023/09/23 05:16:34;;;;;;;21.45;10.02;;;;;;;20.41;65.83;94804.06;4153767;28;20125;-68
2023/09/23 05:18:38;;;;;;;24.27;8.48;;;;;;;20.50;66.10;94800.13;4157056;28;20041;-69
2023/09/23 05:20:42;;;;;;;20.73;9.60;;;;;;;20.57;65.83;94803.56;4163051;28;20047;-70
2023/09/23 05:22:43;;;;;;;19.05;8.30;;;;;;;20.64;65.51;94803.50;4170123;28;20049;-69
2023/09/23 05:24:47;;;;;;;19.77;8.93;;;;;;;20.70;65.24;94801.81;4172212;28;20212;-70
2023/09/23 05:26:51;;;;;;;21.27;8.68;;;;;;;20.79;65.03;94808.50;4163613;28;20045;-70
2023/09/23 05:28:56;;;;;;;19.20;8.27;;;;;;;20.86;64.71;94801.25;4173972;28;20065;-72
2023/09/23 05:30:58;;;;;;;25.77;9.00;;;;;;;20.95;64.36;94801.75;4175164;28;20049;-70
2023/09/23 05:33:00;;;;;;;22.20;8.20;;;;;;;21.05;64.08;94796.75;4171251;28;20547;-72
2023/09/23 05:35:12;;;;;;;19.40;8.43;;;;;;;21.17;63.68;94797.66;4174746;28;20053;-70
2023/09/23 05:37:15;;;;;;;24.85;9.25;;;;;;;21.23;63.24;94804.75;4166789;28;20485;-69
2023/09/23 05:39:19;;;;;;;26.63;8.80;;;;;;;21.29;63.11;94803.03;4171458;28;20061;-72
2023/09/23 05:41:22;;;;;;;18.02;8.35;;;;;;;21.33;63.05;94800.75;4172847;28;20643;-70
2023/09/23 05:43:25;;;;;;;24.30;8.68;;;;;;;21.38;62.69;94801.72;4166027;28;20080;-71
2023/09/23 05:45:29;;;;;;;24.35;9.98;;;;;;;21.10;62.96;94802.25;4158657;28;20045;-70
2023/09/23 05:47:31;;;;;;;23.20;9.85;;;;;;;20.99;63.41;94802.94;4161837;28;20069;-69
2023/09/23 05:49:33;;;;;;;22.95;8.20;;;;;;;21.05;63.11;94810.06;4164546;28;20128;-68
2023/09/23 05:51:35;;;;;;;20.67;9.60;;;;;;;21.17;63.00;94813.63;4161451;28;20144;-70
2023/09/23 05:53:37;;;;;;;25.88;8.52;;;;;;;21.26;62.36;94814.94;4161935;28;20085;-70
2023/09/23 05:55:38;;;;;;;21.85;8.82;;;;;;;21.39;62.30;94815.84;4155501;28;20064;-70
2023/09/23 05:57:40;;;;;;;26.33;9.10;;;;;;;21.54;62.47;94815.50;4165255;28;20381;-70
2023/09/23 05:59:42;;;;;;;27.05;9.98;;;;;;;21.58;62.11;94812.16;4162110;28;20086;-70
2023/09/23 06:01:46;;;;;;;27.05;9.05;;;;;;;21.62;61.34;94812.53;4161831;28;20049;-70
2023/09/23 06:03:49;;;;;;;21.25;8.27;;;;;;;21.72;61.29;94809.31;4160455;28;20041;-70
2023/09/23 06:05:51;;;;;;;27.40;8.88;;;;;;;21.88;61.26;94819.34;4160620;28;20080;-71
2023/09/23 06:07:53;;;;;;;25.98;9.05;;;;;;;21.90;60.47;94817.28;4161813;28;20056;-70
2023/09/23 06:09:55;;;;;;;23.17;9.02;;;;;;;21.95;60.33;94817.38;4155260;28;20046;-70
2023/09/23 06:11:57;;;;;;;27.15;8.55;;;;;;;21.86;60.01;94821.44;4155615;28;20088;-70
2023/09/23 06:13:59;;;;;;;26.58;8.75;;;;;;;21.81;60.45;94816.78;4160786;28;20520;-72
2023/09/23 06:16:03;;;;;;;21.58;9.13;;;;;;;21.72;60.66;94817.31;4161390;28;20507;-72
2023/09/23 06:18:06;;;;;;;24.00;9.55;;;;;;;21.55;61.11;94827.75;4149235;28;20419;-69
2023/09/23 06:20:11;;;;;;;29.67;9.07;;;;;;;21.72;61.18;94833.28;4155913;28;20420;-71
2023/09/23 06:22:13;;;;;;;24.58;8.48;;;;;;;21.78;60.56;94830.53;4162140;28;20107;-71
2023/09/23 06:24:15;;;;;;;35.40;9.93;;;;;;;21.72;60.96;94830.63;4162929;28;20057;-69
2023/09/23 06:26:17;;;;;;;32.35;9.60;;;;;;;21.84;60.71;94836.84;4145613;28;20409;-72
2023/09/23 06:28:19;;;;;;;30.83;8.68;;;;;;;21.97;60.09;94827.84;4158854;28;20053;-71
2023/09/23 06:30:21;;;;;;;24.65;8.52;;;;;;;22.07;60.12;94826.25;4150068;28;20184;-68
2023/09/23 06:32:23;;;;;;;29.35;8.40;;;;;;;22.15;59.65;94824.28;4160214;28;20045;-71
2023/09/23 06:34:25;;;;;;;26.40;8.68;;;;;;;22.22;59.50;94823.19;4156101;28;20146;-69
2023/09/23 06:36:28;;;;;;;24.25;8.30;;;;;;;22.38;60.08;94834.25;4161720;28;20144;-69
2023/09/23 06:38:31;;;;;;;32.15;8.90;;;;;;;22.33;59.42;94834.09;4161154;28;20054;-69
2023/09/23 06:40:33;;;;;;;26.88;8.75;;;;;;;22.37;59.46;94838.78;4160790;28;20129;-69
2023/09/23 06:42:35;;;;;;;23.33;8.27;;;;;;;22.44;59.39;94834.13;4160505;28;20057;-69
2023/09/23 06:44:39;;;;;;;28.67;8.75;;;;;;;22.54;59.20;94838.91;4155801;28;20053;-69
2023/09/23 06:46:41;;;;;;;23.40;8.07;;;;;;;22.49;59.72;94844.94;4158757;28;20416;-72
2023/09/23 06:48:46;;;;;;;18.90;8.30;;;;;;;22.53;59.06;94836.47;4155738;28;20488;-69
2023/09/23 06:51:01;;;;;;;25.58;9.68;;;;;;;22.49;58.89;94839.59;4162652;28;20037;-71
2023/09/23 06:53:05;;;;;;;23.40;8.60;;;;;;;22.58;58.81;94841.94;4154122;28;20049;-72
2023/09/23 06:55:07;;;;;;;;;;;;;;;22.72;58.55;94835.34;4157695;28;20061;-70
2023/09/23 06:57:09;;;;;;;26.60;9.13;;;;;;;22.79;57.83;94844.03;4154976;28;19921;-70
2023/09/23 06:59:11;;;;;;;29.05;8.73;;;;;;;22.94;57.82;94845.44;4166475;28;20053;-70
2023/09/23 07:01:14;;;;;;;29.27;9.52;;;;;;;23.14;57.27;94845.91;4161326;28;20417;-70
2023/09/23 07:03:16;;;;;;;21.95;8.50;;;;;;;23.22;56.73;94847.44;4160649;28;20109;-69
2023/09/23 07:05:20;;;;;;;17.25;8.35;;;;;;;23.29;57.13;94846.25;4162288;28;20056;-70
2023/09/23 07:07:22;;;;;;;52.55;8.27;;;;;;;23.39;57.24;94842.19;4161003;28;20050;-70
2023/09/23 07:09:24;;;;;;;18.88;8.23;;;;;;;23.48;56.73;94849.59;4149908;28;20494;-69
2023/09/23 07:11:26;;;;;;;21.05;7.90;;;;;;;23.65;56.33;94848.84;4151645;28;20052;-70
2023/09/23 07:13:28;;;;;;;27.52;8.10;;;;;;;23.83;55.49;94850.56;4162601;28;20554;-69
2023/09/23 07:15:31;;;;;;;24.63;8.05;;;;;;;23.96;54.66;94847.59;4159716;28;20058;-70
2023/09/23 07:17:32;;;;;;;26.73;8.80;;;;;;;24.08;54.28;94859.09;4157189;28;20060;-70
2023/09/23 07:19:34;;;;;;;17.70;7.72;;;;;;;24.21;54.05;94854.50;4160921;28;20053;-69
2023/09/23 07:21:36;;;;;;;26.13;8.70;;;;;;;24.30;53.80;94851.19;4154343;28;20096;-71
2023/09/23 07:23:38;;;;;;;22.92;8.52;;;;;;;24.42;53.58;94853.81;4155330;28;20045;-70
2023/09/23 07:25:42;;;;;;;23.67;8.48;;;;;;;24.51;53.23;94856.91;4162104;28;20435;-71
2023/09/23 07:27:45;;;;;;;23.05;7.45;;;;;;;24.61;52.93;94856.25;4168419;28;20082;-72
2023/09/23 07:29:50;;;;;;;25.35;8.18;;;;;;;24.32;52.79;94857.09;4168668;28;20056;-70
2023/09/23 07:31:53;;;;;;;22.92;8.00;;;;;;;24.29;53.15;94862.16;4165764;28;20116;-72
2023/09/23 07:33:55;;;;;;;29.15;9.85;;;;;;;24.30;53.20;94861.06;4165852;28;20061;-70
2023/09/23 07:35:57;;;;;;;27.23;8.40;;;;;;;24.43;53.09;94851.94;4171018;28;20053;-69
2023/09/23 07:38:00;;;;;;;23.10;8.07;;;;;;;24.47;53.03;94864.59;4161976;28;20132;-69
2023/09/23 07:40:06;;;;;;;27.02;8.68;;;;;;;24.45;52.88;94850.63;4170202;28;20455;-71
2023/09/23 07:42:09;;;;;;;20.92;8.65;;;;;;;24.40;53.16;94847.88;4172341;28;20045;-70
2023/09/23 07:44:11;;;;;;;20.27;8.57;;;;;;;24.42;53.24;94850.31;4166308;28;20139;-70
2023/09/23 07:46:13;;;;;;;27.40;8.40;;;;;;;24.56;52.83;94837.44;4174769;28;20053;-70
2023/09/23 07:48:15;;;;;;;27.00;8.40;;;;;;;24.63;52.49;94838.09;4157812;28;20128;-70
2023/09/23 07:50:17;;;;;;;23.05;8.48;;;;;;;24.77;52.60;94842.06;4172380;28;20049;-70
2023/09/23 07:52:19;;;;;;;24.50;8.95;;;;;;;24.93;52.35;94843.94;4165045;28;20045;-69
2023/09/23 07:54:21;;;;;;;24.15;9.13;;;;;;;25.07;52.04;94846.28;4154991;28;20053;-69
2023/09/23 07:56:23;;;;;;;21.20;8.93;;;;;;;25.20;51.54;94837.91;4163987;28;20096;-70
2023/09/23 07:58:25;;;;;;;21.08;8.80;;;;;;;25.33;51.46;94840.22;4167795;28;20115;-70
2023/09/23 08:00:27;;;;;;;18.75;8.05;;;;;;;25.46;51.49;94835.56;4164684;28;20060;-69
2023/09/23 08:02:29;;;;;;;20.80;8.18;;;;;;;25.55;51.28;94842.09;4151078;28;20095;-71
2023/09/23 08:04:31;;;;;;;24.05;8.23;;;;;;;25.60;50.85;94841.34;4162880;28;20104;-72
2023/09/23 08:06:33;;;;;;;20.95;8.20;;;;;;;25.72;50.90;94840.16;4163185;28;20049;-69
2023/09/23 08:08:37;;;;;;;20.42;8.07;;;;;;;25.87;50.72;94836.06;4165049;28;20103;-70
2023/09/23 08:10:39;;;;;;;18.83;8.13;;;;;;;25.91;50.22;94831.84;4152255;28;20501;-70
2023/09/23 08:12:42;;;;;;;30.85;8.85;;;;;;;25.98;50.24;94824.38;4159321;28;20051;-70
2023/09/23 08:14:44;;;;;;;22.27;8.68;;;;;;;26.00;49.73;94818.78;4165165;28;20056;-70
2023/09/23 08:16:49;;;;;;;35.50;8.98;;;;;;;26.10;49.63;94827.75;4163012;28;20408;-70
2023/09/23 08:18:52;;;;;;;22.85;8.23;;;;;;;26.25;49.46;94831.66;4154283;28;20623;-72
2023/09/23 08:20:59;;;;;;;23.83;8.20;;;;;;;26.26;48.75;94825.22;4156977;28;20119;-69
2023/09/23 08:23:04;;;;;;;24.38;8.10;;;;;;;26.05;49.33;94824.19;4156524;28;20054;-70
2023/09/23 08:25:11;;;;;;;20.63;8.10;;;;;;;25.63;49.90;94822.91;4164800;28;20049;-70
2023/09/23 08:27:13;;;;;;;26.95;9.07;;;;;;;25.69;49.96;94823.78;4160310;28;20141;-70
2023/09/23 08:29:14;;;;;;;18.83;8.65;;;;;;;25.92;50.00;94820.03;4150301;28;20060;-72
2023/09/23 08:31:16;;;;;;;22.77;7.68;;;;;;;26.08;48.48;94819.13;4154798;28;20045;-73
2023/09/23 08:33:20;;;;;;;22.48;8.30;;;;;;;26.24;48.80;94819.28;4161155;28;20444;-70
2023/09/23 08:35:22;;;;;;;18.50;7.32;;;;;;;26.43;48.92;94809.78;4164909;28;20092;-71
2023/09/23 08:37:24;;;;;;;23.17;8.50;;;;;;;26.49;47.86;94816.81;4164143;28;20057;-70
2023/09/23 08:39:25;;;;;;;24.77;7.70;;;;;;;26.52;47.53;94810.97;4163397;28;20049;-71
2023/09/23 08:41:29;;;;;;;35.30;7.65;;;;;;;26.57;46.93;94812.09;4165613;28;20048;-72
2023/09/23 08:43:36;;;;;;;;;;;;;;;26.51;46.85;94817.38;4163637;28;20200;-70
2023/09/23 08:45:45;;;;;;;19.27;7.32;;;;;;;26.57;46.48;94809.41;4163796;28;19925;-73
2023/09/23 08:47:48;;;;;;;21.70;6.90;;;;;;;26.63;46.70;94816.41;4161526;28;20045;-70
2023/09/23 08:49:50;;;;;;;20.73;7.75;;;;;;;26.79;46.81;94806.63;4163890;28;20077;-71
2023/09/23 08:51:55;;;;;;;18.02;7.50;;;;;;;26.67;46.30;94817.53;4156351;28;20073;-73
2023/09/23 08:53:59;;;;;;;23.27;7.70;;;;;;;26.82;46.42;94812.25;4158748;28;20061;-72
2023/09/23 08:56:01;;;;;;;23.27;7.50;;;;;;;26.91;46.32;94808.03;4159236;28;20119;-71
2023/09/23 08:58:04;;;;;;;19.90;7.65;;;;;;;27.00;46.28;94802.19;4162426;28;20060;-71
2023/09/23 09:00:08;;;;;;;27.63;7.22;;;;;;;27.14;46.20;94803.31;4164142;28;20045;-70
2023/09/23 09:02:20;;;;;;;16.60;7.53;;;;;;;27.27;45.72;94797.50;4146215;28;20160;-70
2023/09/23 09:04:22;;;;;;;22.67;7.47;;;;;;;27.21;45.39;94801.25;4159787;28;20140;-69
2023/09/23 09:06:29;;;;;;;24.52;8.20;;;;;;;27.13;45.31;94789.09;4165276;28;20045;-69
2023/09/23 09:08:31;;;;;;;22.38;7.32;;;;;;;27.33;44.62;94796.47;4148172;28;20053;-70
2023/09/23 09:10:34;;;;;;;25.42;7.43;;;;;;;27.51;44.29;94789.00;4151418;28;20076;-70
2023/09/23 09:12:35;;;;;;;20.55;8.07;;;;;;;27.53;43.96;94797.63;4162599;28;20053;-72
2023/09/23 09:14:37;;;;;;;24.35;7.60;;;;;;;27.37;44.43;94794.88;4163715;28;20080;-70
2023/09/23 09:16:39;;;;;;;28.90;8.45;;;;;;;27.37;44.43;94792.19;4165199;28;20045;-71
2023/09/23 09:18:42;;;;;;;25.10;7.55;;;;;;;27.45;44.33;94798.97;4150742;28;20061;-70
2023/09/23 09:20:44;;;;;;;25.77;7.47;;;;;;;27.50;44.32;94793.59;4161929;28;20045;-71
2023/09/23 09:22:46;;;;;;;26.73;7.35;;;;;;;27.61;44.42;94796.31;4154830;28;20452;-69
2023/09/23 09:24:49;;;;;;;22.25;7.90;;;;;;;27.61;44.47;94794.44;4159502;28;20046;-70
2023/09/23 09:26:51;;;;;;;25.17;7.85;;;;;;;27.76;43.78;94785.59;4163658;28;20441;-73
2023/09/23 09:28:53;;;;;;;22.50;7.28;;;;;;;27.85;43.20;94786.72;4155089;28;20049;-72
2023/09/23 09:30:56;;;;;;;20.17;7.25;;;;;;;27.77;42.60;94779.97;4162400;28;20156;-72
2023/09/23 09:33:01;;;;;;;21.20;6.18;;;;;;;27.92;43.19;94775.72;4152540;28;20058;-69
2023/09/23 09:35:05;;;;;;;27.20;7.20;;;;;;;27.96;42.49;94777.63;4164856;28;20049;-70